sim
Sign-in with your pilot id or email,
or register
Callsign
Passwort

Schedule Details

Flight Number: RYR2631
Departure: London Stansted Airport (EGSS) at 18:10
Arrival: Ponta Delgada Joao Paulo II Airport (LPPD) at 22:15
Route: Ryanair Passenger Schedule. Enter filed route here before submitting Pirep.

Weather Information
Getting current METAR information for EGSS 241420Z AUTO 10008KT 1500 -SN BKN003 BKN009 OVC044 00/00 Q0994
Getting current METAR information for LPPD 241400Z 25012KT 9000 SCT006 SCT014 17/16 Q1015

Schedule Frequency

Route Map